Etusivu
METAR-TAF:

METAR-TAF

Lentoasemat :

Upington, Etelä-Afrikka

Leveyspiiri: 28-24S, Pituuspiiri: 021-16E, korkeus merenpinnasta: 839 m

Tämänhetkinen sää

Tämä raportti tehtiin 57 minuuttia sitten, kello 03.00 UTC
Tuuli 3 kn lännestä/lounaasta
Lämpötila 14°C
Kosteus 82%
Ilmanpaine 1017 hPa
Näkyvyys 10 km tai enemmän
Muutamia pilviä 5000 ft:n korkeudessa
Hajanaisia pilviä 10000 ft:n korkeudessa

METAR: FAUP 230300Z 24003KT 9999 FEW050 SCT100 14/11 Q1017 NOSIG

Aika: 05:57 (03:57 UTC)

Sääennuste

Tämä raportti tehtiin 5 tuntia ja 57 minuuttia sitten, kello 22.00 UTC
Ennuste voimassa 23. päivästä klo 00 UTC - 23. päivään klo 24 UTC
Tuuli 3 kn eri suunnista
Näkyvyys 10 km tai enemmän
Hajanaisia pilviä 1000 ft:n korkeudessa
Tulossa
23. päivästä klo 08 UTC - 23. päivään klo 10 UTC
Hajanaisia pilviä 2000 ft:n korkeudessa

TAF: FAUP 222200Z 2300/2324 VRB03KT 9999 SCT010 TX25/2313Z TN14/2304Z BECMG 2308/2310 SCT020

Säähavainnot ja -ennusteet yli 4000 lentoasemalta (METAR- ja TAF-raportit).

Käytössä olevat sääasemat on merkitty karttaan keltaisilla ja punaisilla pisteillä.

Aseta hiiri pisteen päälle nähdäksesi sääaseman nimen.

Klikkaa sitten nähdäksesi säähavainnot ja -ennusteet.

Kartan vaihtaminen: klikkaa mustalla rastilla varustettuja vihreitä pisteitä, niin voit zoomata sisään; viivalla varustettua vihreää pistettä, niin voit zoomata ulos tai vihreitä nuolia, niin pääset viereisille kartoille.


METAR-TAF: